Time;durP1;ratioP1;P1;durP2;ratioP2;P2;SDS_P1;SDS_P2;PMS_P1;PMS_P2;Temp;Humidity;BMP_temperature;BMP_pressure;BME280_temperature;BME280_humidity;BME280_pressure;Samples;Min_cycle;Max_cycle;Signal;HPM_P1;HPM_P2
2022/05/08 00:02:01;;;;;;;9.35;3.40;;;;;;;20.31;40.92;100593.80;1854760;105;25983;-77
2022/05/08 00:06:10;;;;;;;5.22;3.42;;;;;;;20.29;40.96;100591.18;1854171;103;25931;-75
2022/05/08 00:14:03;;;;;;;5.60;3.95;;;;;;;20.25;40.99;100585.50;1827232;108;25970;-75
2022/05/08 00:17:57;;;;;;;4.17;3.20;;;;;;;20.27;40.95;100584.14;1804387;107;26178;-74
2022/05/08 00:21:22;;;;;;;5.45;3.30;;;;;;;20.33;40.87;100575.25;1816072;106;25598;-75
2022/05/08 00:29:50;;;;;;;5.62;2.87;;;;;;;20.38;40.76;100579.57;1847725;106;26005;-74
2022/05/08 00:33:00;;;;;;;4.87;3.35;;;;;;;20.43;40.66;100602.91;1832269;106;25927;-76
2022/05/08 00:37:10;;;;;;;;;;;;;;;20.42;40.67;100610.89;1789083;109;26036;-79
2022/05/08 00:41:01;;;;;;;;;;;;;;;;;;;;;
2022/05/08 00:49:16;;;;;;;5.92;4.70;;;;;;;20.45;40.72;100613.05;1723314;113;25851;-74
2022/05/08 00:52:59;;;;;;;5.78;3.95;;;;;;;20.46;40.70;100603.33;1722175;113;25819;-73
2022/05/08 01:01:54;;;;;;;6.00;4.65;;;;;;;20.47;40.73;100600.64;1716817;115;25978;-77
2022/05/08 01:14:39;;;;;;;;;;;;;;;;;;;;;
2022/05/08 01:18:30;;;;;;;;;;;;;;;;;;;;;
2022/05/08 01:21:58;;;;;;;9.08;4.80;;;;;;;20.46;40.82;100587.44;1720323;110;26188;-76
2022/05/08 01:29:35;;;;;;;5.53;4.70;;;;;;;20.45;40.86;100585.66;1699194;115;25916;-76
2022/05/08 01:33:00;;;;;;;8.18;5.28;;;;;;;20.42;40.88;100578.66;1701085;115;25914;-82
2022/05/08 01:36:27;;;;;;;5.22;4.72;;;;;;;20.45;40.92;100586.98;1687710;113;25847;-82
2022/05/08 01:39:51;;;;;;;6.28;4.70;;;;;;;20.43;40.92;100582.18;1691761;115;25447;-82
2022/05/08 01:43:18;;;;;;;8.30;4.17;;;;;;;20.41;40.96;100574.69;1725773;114;31476;-81
2022/05/08 01:46:39;;;;;;;5.37;4.78;;;;;;;20.37;40.99;100564.59;1755570;110;25839;-74
2022/05/08 01:50:19;;;;;;;11.25;4.97;;;;;;;20.35;41.03;100570.80;1762545;111;31197;-79
2022/05/08 01:53:52;;;;;;;5.92;4.22;;;;;;;20.33;41.02;100564.66;1810732;108;25723;-74
2022/05/08 01:57:24;;;;;;;6.20;4.30;;;;;;;20.35;41.07;100574.77;1820800;104;25858;-73
2022/05/08 02:00:46;;;;;;;5.40;4.90;;;;;;;20.37;41.06;100576.96;1846957;103;25864;-74
2022/05/08 02:04:19;;;;;;;6.85;4.62;;;;;;;20.38;41.13;100581.34;1905725;103;25683;-74
2022/05/08 02:07:40;;;;;;;6.53;4.67;;;;;;;20.39;41.10;100577.38;1875228;105;26052;-75
2022/05/08 02:11:01;;;;;;;8.48;4.40;;;;;;;20.40;41.15;100576.92;1875760;105;31535;-74
2022/05/08 02:14:30;;;;;;;7.67;5.60;;;;;;;20.40;41.16;100578.24;1899140;104;25796;-74
2022/05/08 02:18:06;;;;;;;6.03;4.90;;;;;;;20.40;41.17;100580.89;1902839;104;26029;-75
2022/05/08 02:21:44;;;;;;;5.12;4.70;;;;;;;20.39;41.21;100573.86;1832978;105;25806;-80
2022/05/08 02:25:50;;;;;;;;;;;;;;;;;;;;;
2022/05/08 02:29:21;;;;;;;9.15;5.75;;;;;;;20.38;41.29;100574.73;1821700;108;25843;-84
2022/05/08 03:00:04;;;;;;;;;;;;;;;;;;;;;
2022/05/08 03:05:50;;;;;;;9.68;5.62;;;;;;;20.15;41.74;100578.99;1745296;112;25986;-76
2022/05/08 03:21:43;;;;;;;;;;;;;;;;;;;;;
2022/05/08 03:25:26;;;;;;;10.85;6.25;;;;;;;19.94;42.16;100583.66;1680707;114;25924;-74
2022/05/08 03:28:56;;;;;;;7.08;5.85;;;;;;;19.92;42.22;100592.53;1644714;117;25930;-76
2022/05/08 03:32:51;;;;;;;9.70;5.80;;;;;;;19.89;42.21;100597.85;1604880;122;26181;-74
2022/05/08 03:37:07;;;;;;;5.50;5.00;;;;;;;19.91;42.23;100596.05;1621437;120;25543;-76
2022/05/08 03:41:07;;;;;;;;;;;;;;;;;;;;;
2022/05/08 03:44:47;;;;;;;;;;;;;;;;;;;;;
2022/05/08 03:48:42;;;;;;;;;;;;;;;;;;;;;
2022/05/08 03:55:54;;;;;;;12.90;5.50;;;;;;;20.03;42.24;100610.47;1717473;113;25448;-74
2022/05/08 04:00:09;;;;;;;6.10;5.22;;;;;;;20.02;42.23;100610.92;1722083;112;25890;-79
2022/05/08 04:04:11;;;;;;;6.28;5.22;;;;;;;20.02;42.20;100612.25;1721814;112;25763;-75
2022/05/08 04:07:37;;;;;;;9.73;5.73;;;;;;;20.02;42.27;100624.16;1720946;115;25803;-74
2022/05/08 04:11:31;;;;;;;7.55;6.10;;;;;;;20.01;42.30;100635.65;1714938;112;25968;-75
2022/05/08 04:16:15;;;;;;;;;;;;;;;;;;;;;
2022/05/08 04:18:41;;;;;;;12.53;5.72;;;;;;;20.02;42.29;100645.78;1661493;115;27144;-74
2022/05/08 04:26:35;;;;;;;6.92;5.58;;;;;;;20.03;42.29;100647.07;1693919;114;25986;-75
2022/05/08 04:34:03;;;;;;;6.20;5.55;;;;;;;20.05;42.33;100643.98;1683942;113;26148;-75
2022/05/08 04:37:54;;;;;;;7.70;5.45;;;;;;;20.06;42.38;100640.87;1676925;113;26146;-73
2022/05/08 04:45:54;;;;;;;11.73;6.87;;;;;;;20.10;42.41;100637.75;1708570;114;25833;-75
2022/05/08 04:49:30;;;;;;;;;;;;;;;;;;;;;
2022/05/08 04:53:09;;;;;;;10.72;5.35;;;;;;;20.14;42.49;100652.69;1689462;115;25881;-75
2022/05/08 04:57:02;;;;;;;;;;;;;;;;;;;;;
2022/05/08 05:01:11;;;;;;;;;;;;;;;;;;;;;
2022/05/08 05:04:45;;;;;;;6.90;6.25;;;;;;;20.20;42.60;100663.22;1765179;109;25892;-76
2022/05/08 05:08:20;;;;;;;8.78;6.17;;;;;;;20.23;42.66;100655.24;1807177;109;26114;-75
2022/05/08 05:12:02;;;;;;;8.33;5.97;;;;;;;20.27;42.69;100651.66;1807005;107;25875;-75
2022/05/08 05:15:49;;;;;;;6.33;5.73;;;;;;;20.32;42.71;100659.53;1774492;110;25830;-75
2022/05/08 05:23:42;;;;;;;10.53;7.30;;;;;;;20.45;42.90;100670.41;1712780;114;26009;-75
2022/05/08 05:27:13;;;;;;;8.43;5.45;;;;;;;20.54;42.90;100670.33;1712335;114;25948;-76
2022/05/08 05:34:35;;;;;;;7.33;6.15;;;;;;;20.70;42.94;100678.52;1658313;115;26000;-74
2022/05/08 05:44:01;;;;;;;;;;;;;;;;;;;;;
2022/05/08 05:53:24;;;;;;;8.83;6.27;;;;;;;20.99;43.03;100701.08;1600505;123;25947;-81
2022/05/08 06:01:25;;;;;;;9.13;6.50;;;;;;;21.38;43.00;100708.06;1596715;122;25984;-75
2022/05/08 06:09:42;;;;;;;6.78;5.70;;;;;;;21.64;42.90;100712.50;1633746;118;25795;-74
2022/05/08 06:17:36;;;;;;;9.48;5.35;;;;;;;22.00;42.89;100722.03;1665241;118;25865;-76
2022/05/08 06:22:17;;;;;;;5.92;4.97;;;;;;;22.52;42.84;100718.43;1680016;117;26076;-75
2022/05/08 06:34:22;;;;;;;6.55;4.55;;;;;;;24.30;41.02;100719.56;1606937;120;25994;-75
2022/05/08 06:37:48;;;;;;;4.62;4.22;;;;;;;24.84;40.70;100711.35;1562632;124;26246;-74
2022/05/08 06:41:41;;;;;;;4.22;3.42;;;;;;;25.25;40.23;100720.80;1610245;121;26059;-80
2022/05/08 06:45:43;;;;;;;;;;;;;;;;;;;;;
2022/05/08 06:49:04;;;;;;;5.53;3.42;;;;;;;26.27;38.53;100720.95;1592736;122;26009;-76
2022/05/08 06:56:45;;;;;;;3.85;2.80;;;;;;;25.99;38.43;100722.40;1604271;122;25555;-75
2022/05/08 07:05:22;;;;;;;;;;;;;;;;;;;;;
2022/05/08 07:08:53;;;;;;;5.10;3.20;;;;;;;25.44;38.86;100737.95;1575195;124;25899;-77
2022/05/08 07:12:53;;;;;;;;;;;;;;;;;;;;;
2022/05/08 07:16:20;;;;;;;6.12;2.90;;;;;;;26.77;38.53;100743.65;1661691;117;26081;-78
2022/05/08 07:20:28;;;;;;;;;;;;;;;;;;;;;
2022/05/08 07:23:46;;;;;;;12.58;5.53;;;;;;;26.97;37.29;100740.22;1629026;115;25944;-79
2022/05/08 07:27:10;;;;;;;8.58;4.80;;;;;;;26.53;37.83;100747.64;1629207;121;25933;-77
2022/05/08 07:30:43;;;;;;;8.25;4.58;;;;;;;26.20;37.14;100751.50;1635260;117;26250;-75
2022/05/08 07:37:45;;;;;;;4.87;4.45;;;;;;;25.27;37.19;100750.96;1636228;119;26248;-73
2022/05/08 07:41:24;;;;;;;5.05;4.03;;;;;;;24.90;37.34;100744.05;1675582;116;25525;-76
2022/05/08 07:44:50;;;;;;;11.30;4.72;;;;;;;24.59;37.73;100748.54;1696393;116;25891;-76
2022/05/08 07:48:16;;;;;;;6.55;4.58;;;;;;;24.34;38.12;100746.53;1691204;115;25815;-74
2022/05/08 07:51:45;;;;;;;7.10;4.33;;;;;;;24.25;38.72;100758.30;1698359;112;25857;-75
2022/05/08 07:55:19;;;;;;;8.38;4.65;;;;;;;24.21;39.49;100754.44;1739019;111;25871;-75
2022/05/08 07:59:19;;;;;;;7.40;4.33;;;;;;;24.15;40.94;100752.80;1745068;107;25901;-76
2022/05/08 08:03:01;;;;;;;5.15;4.45;;;;;;;24.13;40.39;100755.09;1840902;106;25851;-77
2022/05/08 08:07:23;;;;;;;7.05;4.20;;;;;;;24.18;41.75;100760.72;1830926;108;25873;-76
2022/05/08 08:11:18;;;;;;;8.45;4.37;;;;;;;24.18;40.98;100766.05;1830972;106;25852;-76
2022/05/08 08:15:08;;;;;;;4.70;4.20;;;;;;;24.21;41.24;100771.76;1838996;106;25947;-76
2022/05/08 08:18:30;;;;;;;6.25;3.62;;;;;;;24.20;40.54;100764.69;1833130;107;25903;-77
2022/05/08 08:22:09;;;;;;;5.72;3.65;;;;;;;24.19;40.30;100765.58;1813235;107;25861;-77
2022/05/08 08:25:43;;;;;;;7.08;4.15;;;;;;;24.27;40.38;100770.27;1786226;109;25970;-80
2022/05/08 08:29:30;;;;;;;4.22;3.52;;;;;;;24.46;40.29;100768.86;1785919;107;26266;-74
2022/05/08 08:36:42;;;;;;;4.45;3.50;;;;;;;24.90;39.22;100768.52;1775498;110;25900;-77
2022/05/08 08:40:24;;;;;;;4.92;2.92;;;;;;;25.19;38.93;100769.02;1756092;110;26692;-76
2022/05/08 08:48:17;;;;;;;5.15;2.75;;;;;;;26.04;37.95;100777.87;1770724;110;25845;-76
2022/05/08 08:52:17;;;;;;;;;;;;;;;;;;;;;
2022/05/08 08:55:44;;;;;;;5.95;2.40;;;;;;;26.64;36.94;100776.66;1756854;109;25880;-79
2022/05/08 08:59:42;;;;;;;3.50;2.70;;;;;;;26.36;36.46;100785.65;1749522;111;26184;-76
2022/05/08 09:03:03;;;;;;;5.90;2.60;;;;;;;26.04;36.45;100781.88;1736525;113;25884;-77
2022/05/08 09:06:58;;;;;;;4.53;2.70;;;;;;;25.71;36.17;100785.17;1736574;113;25852;-76
2022/05/08 09:10:57;;;;;;;5.90;2.25;;;;;;;25.52;36.58;100784.44;1735967;112;25976;-78
2022/05/08 09:14:52;;;;;;;4.65;2.47;;;;;;;25.63;36.67;100786.77;1736064;111;25911;-76
2022/05/08 09:23:25;;;;;;;3.52;2.85;;;;;;;26.23;36.54;100791.48;1726125;111;26016;-75
2022/05/08 09:28:01;;;;;;;3.20;2.40;;;;;;;26.35;36.11;100787.02;1772123;110;25868;-77
2022/05/08 09:31:56;;;;;;;3.52;2.75;;;;;;;26.40;35.81;100787.75;1790108;108;26035;-73
2022/05/08 09:35:31;;;;;;;4.92;1.92;;;;;;;26.34;35.62;100782.14;1725330;112;25962;-77
2022/05/08 09:39:10;;;;;;;2.02;1.75;;;;;;;26.12;35.44;100781.14;1705780;113;25650;-76
2022/05/08 09:43:26;;;;;;;;;;;;;;;;;;;;;
2022/05/08 09:47:00;;;;;;;2.27;1.57;;;;;;;25.97;34.98;100793.23;1726937;111;26016;-84
2022/05/08 09:50:43;;;;;;;;;;;;;;;25.77;34.90;100789.84;1728825;113;25919;-77
2022/05/08 09:54:58;;;;;;;3.12;1.60;;;;;;;25.63;35.01;100784.96;1715850;113;26768;-78
2022/05/08 10:03:13;;;;;;;1.70;1.60;;;;;;;25.25;35.67;100778.17;1627605;118;26009;-79
2022/05/08 10:06:57;;;;;;;4.53;1.67;;;;;;;25.22;35.55;100790.73;1623362;120;25951;-78
2022/05/08 10:14:49;;;;;;;2.85;1.40;;;;;;;25.48;35.33;100784.56;1603477;119;26377;-79
2022/05/08 10:18:31;;;;;;;2.10;1.30;;;;;;;25.37;35.50;100777.77;1605388;121;25945;-78
2022/05/08 10:22:03;;;;;;;5.55;1.35;;;;;;;25.32;35.30;100783.73;1598439;121;25964;-78
2022/05/08 10:25:45;;;;;;;1.62;1.20;;;;;;;25.26;35.08;100789.25;1594776;122;26125;-79
2022/05/08 10:29:12;;;;;;;3.60;1.02;;;;;;;25.17;34.97;100782.86;1583620;124;26060;-78
2022/05/08 10:41:53;;;;;;;3.62;0.90;;;;;;;24.87;34.34;100789.51;1619856;119;26517;-78
2022/05/08 10:46:03;;;;;;;9.33;1.20;;;;;;;24.65;34.56;100788.36;1619770;120;26069;-78
2022/05/08 10:49:59;;;;;;;;;;;;;;;;;;;;;
2022/05/08 10:53:36;;;;;;;1.82;1.00;;;;;;;24.43;34.71;100791.59;1717357;113;26246;-77
2022/05/08 10:57:09;;;;;;;2.08;1.12;;;;;;;24.40;34.71;100783.72;1720618;112;26110;-77
2022/05/08 11:00:50;;;;;;;4.62;0.98;;;;;;;24.59;34.79;100784.06;1722883;114;25835;-77
2022/05/08 11:04:24;;;;;;;1.90;0.95;;;;;;;25.40;34.66;100780.34;1687419;115;25414;-77
2022/05/08 11:08:03;;;;;;;1.40;1.10;;;;;;;26.45;34.14;100779.08;1700462;115;25877;-78
2022/05/08 11:11:34;;;;;;;2.50;1.10;;;;;;;27.39;33.57;100769.79;1732596;112;25796;-79
2022/05/08 11:15:23;;;;;;;1.70;1.00;;;;;;;28.03;32.47;100782.84;1755902;111;25854;-79
2022/05/08 11:19:03;;;;;;;2.85;1.17;;;;;;;28.55;31.49;100776.09;1777673;108;26021;-79
2022/05/08 11:23:00;;;;;;;1.72;1.00;;;;;;;29.18;30.49;100762.01;1778531;105;25883;-79
2022/05/08 11:26:37;;;;;;;2.25;1.15;;;;;;;29.83;29.96;100766.94;1766015;109;26638;-78
2022/05/08 11:29:58;;;;;;;8.40;0.90;;;;;;;30.54;29.24;100767.75;1738807;109;25904;-78
2022/05/08 11:37:40;;;;;;;2.02;0.90;;;;;;;31.48;28.00;100765.30;1738832;112;25959;-79
2022/05/08 11:41:19;;;;;;;2.58;1.10;;;;;;;32.11;27.32;100765.67;1738078;112;25905;-79
2022/05/08 11:44:54;;;;;;;2.20;1.00;;;;;;;32.62;26.71;100770.22;1738363;109;25926;-79
2022/05/08 11:48:40;;;;;;;0.70;0.70;;;;;;;32.82;26.08;100755.46;1739668;110;25982;-79
2022/05/08 11:52:39;;;;;;;4.47;1.00;;;;;;;32.76;25.53;100749.09;1731017;112;25460;-79
2022/05/08 11:56:54;;;;;;;1.62;1.20;;;;;;;32.30;25.68;100750.56;1718081;113;25981;-79
2022/05/08 12:00:32;;;;;;;1.52;0.93;;;;;;;31.92;25.61;100742.98;1737499;109;25971;-79
2022/05/08 12:04:23;;;;;;;;;;;;;;;31.99;25.67;100744.34;1778453;109;25999;-79
2022/05/08 12:08:03;;;;;;;1.05;0.95;;;;;;;32.27;25.17;100746.74;1850460;103;25782;-79
2022/05/08 12:11:48;;;;;;;0.90;0.90;;;;;;;32.25;25.33;100736.51;1854589;105;25781;-78
2022/05/08 12:15:29;;;;;;;2.05;0.85;;;;;;;32.15;25.18;100742.94;1854334;105;25402;-79
2022/05/08 12:19:19;;;;;;;6.33;0.80;;;;;;;32.05;25.09;100739.93;1773916;109;25913;-78
2022/05/08 12:23:29;;;;;;;3.37;0.80;;;;;;;32.29;25.02;100738.91;1773359;104;25651;-78
2022/05/08 12:27:20;;;;;;;7.22;0.70;;;;;;;32.52;24.81;100740.23;1782742;104;31039;-79
2022/05/08 12:30:52;;;;;;;5.90;1.10;;;;;;;32.63;24.50;100732.31;1763337;110;26083;-78
2022/05/08 12:35:09;;;;;;;7.30;1.00;;;;;;;32.69;24.13;100730.58;1766565;109;25772;-79
2022/05/08 12:38:58;;;;;;;4.60;1.45;;;;;;;32.60;23.93;100726.23;1765834;110;25915;-79
2022/05/08 12:42:34;;;;;;;1.77;0.70;;;;;;;32.78;23.82;100707.54;1694175;116;25520;-78
2022/05/08 12:46:28;;;;;;;1.00;0.80;;;;;;;32.87;23.72;100711.01;1682381;117;25895;-78
2022/05/08 12:50:21;;;;;;;;;;;;;;;;;;;;;
2022/05/08 12:54:09;;;;;;;;;;;;;;;;;;;;;
2022/05/08 13:01:49;;;;;;;2.90;0.80;;;;;;;31.78;23.87;100718.16;1685976;115;25887;-79
2022/05/08 13:09:39;;;;;;;;;;;;;;;;;;;;;
2022/05/08 13:13:37;;;;;;;1.40;0.70;;;;;;;31.11;24.39;100715.31;1756582;112;25774;-76
2022/05/08 13:17:22;;;;;;;2.35;1.00;;;;;;;30.77;24.60;100707.78;1791811;108;25957;-79
2022/05/08 13:20:58;;;;;;;2.87;0.80;;;;;;;30.52;24.59;100714.97;1837834;106;25810;-79
2022/05/08 13:24:45;;;;;;;1.50;0.70;;;;;;;30.26;24.83;100720.39;1837996;104;25863;-79
2022/05/08 13:28:22;;;;;;;3.45;0.90;;;;;;;30.02;24.93;100715.80;1836379;104;25891;-78
2022/05/08 13:32:11;;;;;;;3.92;0.80;;;;;;;29.74;25.23;100719.91;1837905;106;25929;-80
2022/05/08 13:36:32;;;;;;;5.50;1.52;;;;;;;29.49;25.40;100706.79;1849350;106;25895;-79
2022/05/08 13:40:00;;;;;;;6.22;0.90;;;;;;;29.20;25.75;100717.64;1918895;100;25762;-78
2022/05/08 13:43:21;;;;;;;1.25;0.72;;;;;;;29.12;25.91;100713.10;1914294;101;25796;-77
2022/05/08 13:47:27;;;;;;;5.37;1.12;;;;;;;29.21;25.98;100717.17;1910141;101;26049;-79
2022/05/08 13:55:00;;;;;;;1.25;0.88;;;;;;;28.66;26.35;100717.47;1899197;100;25869;-78
2022/05/08 13:59:02;;;;;;;;;;;;;;;;;;;;;
2022/05/08 14:02:31;;;;;;;5.87;0.88;;;;;;;28.15;26.97;100712.16;1912709;101;25566;-79
2022/05/08 14:05:57;;;;;;;1.02;0.70;;;;;;;27.91;27.19;100714.09;1933533;100;25366;-79
2022/05/08 14:09:28;;;;;;;1.72;0.75;;;;;;;27.75;27.30;100717.86;1950099;99;25853;-79
2022/05/08 14:12:59;;;;;;;2.92;0.70;;;;;;;27.69;27.40;100718.11;1954282;100;25748;-78
2022/05/08 14:16:44;;;;;;;2.22;0.70;;;;;;;27.68;27.61;100719.53;1954342;100;25781;-78
2022/05/08 14:20:18;;;;;;;4.05;0.90;;;;;;;27.69;27.67;100722.13;1951869;100;26048;-79
2022/05/08 14:27:40;;;;;;;3.90;0.88;;;;;;;27.84;27.69;100719.29;1941466;97;25895;-78
2022/05/08 14:38:39;;;;;;;1.90;1.35;;;;;;;27.75;27.69;100726.38;1991597;98;25820;-78
2022/05/08 14:42:15;;;;;;;4.42;0.78;;;;;;;27.57;27.71;100727.12;1987687;97;25928;-78
2022/05/08 14:45:58;;;;;;;;;;;;;;;;;;;;;
2022/05/08 14:49:07;;;;;;;3.37;0.85;;;;;;;27.20;27.91;100724.16;1985812;97;26615;-79
2022/05/08 14:52:56;;;;;;;2.17;0.88;;;;;;;27.17;27.93;100726.95;1990739;98;25856;-80
2022/05/08 14:56:50;;;;;;;1.30;0.70;;;;;;;27.14;28.05;100709.67;1900150;104;25985;-78
2022/05/08 15:00:15;;;;;;;3.37;0.62;;;;;;;27.20;28.23;100721.92;1896942;102;25918;-78
2022/05/08 15:08:05;;;;;;;1.25;0.70;;;;;;;27.11;28.24;100715.11;1817420;107;25937;-78
2022/05/08 15:11:32;;;;;;;1.22;0.70;;;;;;;27.07;28.21;100706.81;1817578;104;25931;-79
2022/05/08 15:14:57;;;;;;;1.35;0.72;;;;;;;26.91;28.35;100710.55;1818093;108;26172;-79
2022/05/08 15:22:38;;;;;;;1.15;0.68;;;;;;;26.73;28.45;100705.45;1816684;107;25826;-79
2022/05/08 15:29:47;;;;;;;0.70;0.60;;;;;;;26.49;28.54;100707.22;1735300;113;25818;-80
2022/05/08 15:33:17;;;;;;;0.68;0.50;;;;;;;26.31;28.49;100708.74;1792037;107;26009;-79
2022/05/08 15:41:40;;;;;;;1.95;0.70;;;;;;;26.09;28.70;100706.45;1774309;110;26081;-79
2022/05/08 15:45:21;;;;;;;;;;;;;;;;;;;;;
2022/05/08 15:49:09;;;;;;;2.30;0.60;;;;;;;26.00;28.67;100702.77;1828110;104;26014;-78
2022/05/08 15:53:09;;;;;;;1.85;0.50;;;;;;;25.93;28.44;100706.58;1838885;106;25980;-78
2022/05/08 15:56:50;;;;;;;4.50;0.60;;;;;;;25.86;28.44;100709.45;1853060;105;25878;-78
2022/05/08 16:00:43;;;;;;;2.77;1.10;;;;;;;25.75;28.27;100716.94;1892191;102;25856;-79
2022/05/08 16:07:59;;;;;;;4.17;1.17;;;;;;;25.43;28.36;100719.33;1843868;105;25961;-78
2022/05/08 16:11:26;;;;;;;1.35;0.70;;;;;;;25.28;28.53;100717.13;1846912;105;26065;-80
2022/05/08 16:26:29;;;;;;;2.85;0.90;;;;;;;24.80;29.34;100719.91;1812885;104;26041;-79
2022/05/08 16:30:10;;;;;;;;;;;;;;;;;;;;;
2022/05/08 16:33:28;;;;;;;2.08;1.27;;;;;;;24.53;29.68;100730.05;1812803;107;26015;-79
2022/05/08 16:37:10;;;;;;;3.02;1.57;;;;;;;24.43;29.90;100732.96;1847675;104;25857;-79
2022/05/08 16:40:47;;;;;;;1.50;0.93;;;;;;;24.34;30.00;100740.34;1874361;105;25856;-79
2022/05/08 16:44:25;;;;;;;;;;;;;;;;;;;;;
2022/05/08 16:47:50;;;;;;;3.02;0.90;;;;;;;24.12;30.23;100744.89;1921492;100;45339;-79
2022/05/08 16:51:15;;;;;;;8.15;1.00;;;;;;;24.02;30.31;100745.59;1939297;100;25814;-79
2022/05/08 16:54:47;;;;;;;4.03;0.93;;;;;;;23.93;30.22;100750.30;1966196;100;25738;-83
2022/05/08 16:58:10;;;;;;;1.50;0.70;;;;;;;23.79;30.17;100745.30;1966459;100;25868;-77
2022/05/08 17:01:34;;;;;;;0.98;0.75;;;;;;;23.67;30.32;100746.92;1965627;99;25343;-79
2022/05/08 17:04:59;;;;;;;9.65;1.00;;;;;;;23.60;30.45;100744.00;1966266;98;25904;-78
2022/05/08 17:08:36;;;;;;;2.25;0.60;;;;;;;23.56;30.56;100756.51;1966351;99;25838;-78
2022/05/08 17:12:10;;;;;;;1.50;1.00;;;;;;;23.49;30.70;100754.45;1908940;102;25981;-79
2022/05/08 17:15:50;;;;;;;1.40;0.88;;;;;;;23.42;30.79;100755.51;1905588;102;25818;-78
2022/05/08 17:19:57;;;;;;;4.50;1.17;;;;;;;23.36;30.90;100754.77;1908343;102;25729;-78
2022/05/08 17:23:24;;;;;;;4.42;0.78;;;;;;;23.27;30.99;100755.84;1909438;102;25785;-76
2022/05/08 17:30:27;;;;;;;5.45;4.95;;;;;;;23.09;31.21;100756.69;1909385;103;25908;-78
2022/05/08 17:33:51;;;;;;;2.92;2.72;;;;;;;23.10;31.39;100762.41;1875809;99;25961;-78
2022/05/08 17:37:12;;;;;;;3.20;1.62;;;;;;;23.08;31.47;100760.69;1875429;104;25847;-77
2022/05/08 17:41:02;;;;;;;4.75;1.52;;;;;;;23.06;31.54;100763.40;1880573;103;25879;-77
2022/05/08 17:48:22;;;;;;;2.95;1.40;;;;;;;22.94;31.67;100772.09;1839305;106;25835;-78
2022/05/08 17:51:46;;;;;;;1.92;0.90;;;;;;;22.91;31.80;100780.09;1812274;107;25969;-78
2022/05/08 17:55:11;;;;;;;6.53;1.10;;;;;;;22.88;31.84;100783.68;1839070;106;25786;-78
2022/05/08 17:58:40;;;;;;;4.37;1.00;;;;;;;22.80;32.01;100780.32;1812505;109;26209;-79
2022/05/08 18:06:06;;;;;;;4.42;1.27;;;;;;;22.66;32.26;100789.91;1812878;107;25910;-80
2022/05/08 18:09:47;;;;;;;1.67;1.22;;;;;;;22.60;32.44;100790.02;1874479;103;26387;-79
2022/05/08 18:13:23;;;;;;;2.25;1.40;;;;;;;22.54;32.51;100802.95;1814806;107;26048;-75
2022/05/08 18:17:03;;;;;;;1.70;1.10;;;;;;;22.46;32.76;100798.71;1851603;105;25818;-76
2022/05/08 18:20:48;;;;;;;2.75;1.60;;;;;;;22.38;32.96;100801.52;1876446;100;25862;-76
2022/05/08 18:24:17;;;;;;;6.10;1.75;;;;;;;22.43;33.28;100810.27;1878962;103;26253;-76
2022/05/08 18:28:00;;;;;;;2.35;1.50;;;;;;;22.45;33.38;100816.44;1878916;105;25769;-75
2022/05/08 18:31:38;;;;;;;2.00;1.40;;;;;;;22.45;33.54;100816.44;1989046;97;25689;-78
2022/05/08 18:35:10;;;;;;;1.90;1.12;;;;;;;22.43;33.70;100827.98;1949527;99;26531;-79
2022/05/08 18:39:06;;;;;;;;;;;;;;;;;;;;;
2022/05/08 18:42:20;;;;;;;2.70;1.30;;;;;;;22.26;33.78;100832.27;1866214;104;25833;-79
2022/05/08 18:45:50;;;;;;;1.98;1.45;;;;;;;22.08;33.92;100840.08;1867716;104;25832;-78
2022/05/08 18:49:35;;;;;;;3.17;1.22;;;;;;;21.93;34.10;100846.03;1850647;105;25566;-78
2022/05/08 18:53:22;;;;;;;5.40;2.27;;;;;;;21.77;34.33;100851.60;1791269;110;25901;-77
2022/05/08 18:57:10;;;;;;;2.27;1.92;;;;;;;21.59;34.56;100856.28;1791144;105;25875;-75
2022/05/08 19:00:38;;;;;;;2.95;2.00;;;;;;;21.49;34.85;100864.40;1751667;111;25975;-77
2022/05/08 19:04:18;;;;;;;3.72;2.30;;;;;;;21.27;35.22;100863.78;1753108;110;26233;-77
2022/05/08 19:07:50;;;;;;;3.40;2.37;;;;;;;21.13;35.45;100867.48;1758406;111;26555;-77
2022/05/08 19:21:12;;;;;;;5.72;3.02;;;;;;;20.81;36.14;100883.73;1807637;106;25811;-84
2022/05/08 19:25:26;;;;;;;;;;;;;;;;;;;;;
2022/05/08 19:41:33;;;;;;;5.50;2.47;;;;;;;20.62;36.12;100925.45;1779748;110;25783;-83
2022/05/08 19:45:17;;;;;;;5.83;2.05;;;;;;;20.54;36.04;100929.92;1783510;109;25366;-85
2022/05/08 19:48:49;;;;;;;7.55;2.65;;;;;;;20.46;35.97;100929.96;1783926;110;25931;-84
2022/05/08 19:52:19;;;;;;;8.88;2.30;;;;;;;20.36;36.00;100930.93;1783768;110;25740;-83
2022/05/08 19:56:03;;;;;;;12.53;2.70;;;;;;;20.26;35.90;100925.27;1803729;104;26175;-81
2022/05/08 19:59:44;;;;;;;4.87;2.10;;;;;;;20.19;35.89;100935.03;1890943;103;25885;-81
2022/05/08 20:03:12;;;;;;;6.08;2.40;;;;;;;20.11;35.85;100938.60;1893326;103;25928;-83
2022/05/08 20:06:44;;;;;;;7.47;2.30;;;;;;;20.04;35.87;100946.58;1865983;105;26404;-83
2022/05/08 20:10:29;;;;;;;4.97;1.98;;;;;;;19.94;35.84;100944.88;2030619;96;26021;-83
2022/05/08 20:14:26;;;;;;;5.72;2.20;;;;;;;19.85;35.82;100948.92;2106329;92;25673;-83
2022/05/08 20:18:40;;;;;;;13.20;2.95;;;;;;;19.76;35.77;100952.92;2136217;91;25743;-83
2022/05/08 20:22:27;;;;;;;6.12;1.95;;;;;;;19.67;35.68;100953.84;1987599;98;25829;-77
2022/05/08 20:26:15;;;;;;;6.80;2.50;;;;;;;19.62;35.47;100962.67;1874716;104;25885;-76
2022/05/08 20:34:04;;;;;;;;;;;;;;;;;;;;;
2022/05/08 20:42:40;;;;;;;7.03;2.37;;;;;;;19.99;36.11;100985.89;1819868;107;25896;-75
2022/05/08 20:50:07;;;;;;;7.22;2.67;;;;;;;20.18;35.85;100987.55;1722010;113;25896;-72
2022/05/08 21:03:50;;;;;;;6.53;2.15;;;;;;;20.30;35.74;100991.88;;;;
2022/05/08 21:15:02;;;;;;;;;;;;;;;;;;;;;
2022/05/08 21:18:48;;;;;;;6.17;2.17;;;;;;;20.18;35.22;101014.03;1705946;111;25879;-76
2022/05/08 21:36:07;;;;;;;;;;;;;;;;;;;;;
2022/05/08 21:40:12;;;;;;;4.58;1.95;;;;;;;19.87;34.55;101024.31;1774550;109;26196;-76
2022/05/08 21:44:01;;;;;;;;;;;;;;;;;;;;;
2022/05/08 21:47:38;;;;;;;5.85;1.90;;;;;;;19.65;34.31;101027.05;1753556;110;26265;-77
2022/05/08 21:51:27;;;;;;;5.00;1.57;;;;;;;19.58;34.23;101026.16;1699385;115;26221;-79
2022/05/08 21:55:04;;;;;;;4.92;1.80;;;;;;;19.55;34.17;101031.45;1666626;116;25875;-75
2022/05/08 21:58:26;;;;;;;4.12;1.55;;;;;;;19.48;34.12;101034.13;1651554;115;25990;-76
2022/05/08 22:02:17;;;;;;;3.15;1.65;;;;;;;19.41;34.09;101033.27;1697645;113;25992;-76
2022/05/08 22:05:56;;;;;;;8.63;2.58;;;;;;;19.38;34.05;101040.33;1742571;113;25982;-75
2022/05/08 22:09:32;;;;;;;3.72;1.90;;;;;;;19.33;34.02;101039.86;1776349;111;26007;-76
2022/05/08 22:13:47;;;;;;;;;;;;;;;;;;;;;
2022/05/08 22:16:43;;;;;;;4.92;1.82;;;;;;;19.26;34.09;101050.47;1773362;109;25886;-76
2022/05/08 22:24:08;;;;;;;4.45;1.80;;;;;;;19.14;34.22;101052.69;1784601;109;25875;-75
2022/05/08 22:31:52;;;;;;;2.92;1.52;;;;;;;19.00;34.49;101057.99;1828484;105;26038;-75
2022/05/08 22:39:39;;;;;;;4.67;1.70;;;;;;;18.80;34.76;101064.59;1745447;110;27063;-79
2022/05/08 22:47:43;;;;;;;3.85;1.60;;;;;;;18.68;35.16;101070.26;1781927;109;26124;-79
2022/05/08 22:51:29;;;;;;;3.87;1.80;;;;;;;18.58;35.31;101074.20;;;;
2022/05/08 23:01:15;;;;;;;2.45;1.77;;;;;;;18.51;35.59;101080.34;1783029;109;26043;-75
2022/05/08 23:05:18;;;;;;;5.40;1.80;;;;;;;18.49;35.78;101081.21;1838284;106;25502;-75
2022/05/08 23:16:46;;;;;;;3.37;1.92;;;;;;;18.48;36.11;101089.58;1790269;109;26435;-76
2022/05/08 23:20:40;;;;;;;3.00;1.82;;;;;;;18.48;36.18;101101.91;1790594;105;25774;-77
2022/05/08 23:24:16;;;;;;;3.30;1.45;;;;;;;18.49;36.27;101103.21;1739901;109;25950;-75
2022/05/08 23:27:56;;;;;;;;;;;;;;;;;;;;;
2022/05/08 23:31:45;;;;;;;;;;;;;;;;;;;;;
2022/05/08 23:34:57;;;;;;;;;;;;;;;18.49;36.41;101108.94;1672386;113;25938;-76
2022/05/08 23:39:42;;;;;;;3.98;1.98;;;;;;;18.47;36.59;101107.63;1639448;119;25877;-77
2022/05/08 23:42:46;;;;;;;2.55;1.77;;;;;;;18.46;36.62;101107.20;1645193;113;26074;-81
2022/05/08 23:46:27;;;;;;;5.25;2.10;;;;;;;18.40;36.74;101105.41;1735692;112;25865;-77
2022/05/08 23:50:22;;;;;;;;;;;;;;;;;;;;;
2022/05/08 23:58:01;;;;;;;3.95;1.98;;;;;;;18.23;37.31;101122.08;1776764;110;25989;-76
